sensor_id;sensor_type;location;lat;lon;timestamp;pressure;altitude;pressure_sealevel;temperature;humidity
8894;BME280;4483;48.622;9.230;2023-08-06T00:01:55;97143.72;;;16.07;100.00
8894;BME280;4483;48.622;9.230;2023-08-06T00:04:22;97133.56;;;16.04;100.00
8894;BME280;4483;48.622;9.230;2023-08-06T00:06:48;97134.00;;;15.98;100.00
8894;BME280;4483;48.622;9.230;2023-08-06T00:09:15;97138.72;;;15.93;100.00
8894;BME280;4483;48.622;9.230;2023-08-06T00:11:42;97130.19;;;15.91;100.00
8894;BME280;4483;48.622;9.230;2023-08-06T00:14:09;97129.69;;;15.86;100.00
8894;BME280;4483;48.622;9.230;2023-08-06T00:16:35;97129.78;;;15.84;100.00
8894;BME280;4483;48.622;9.230;2023-08-06T00:19:03;97126.81;;;15.78;100.00
8894;BME280;4483;48.622;9.230;2023-08-06T00:21:30;97121.03;;;15.74;100.00
8894;BME280;4483;48.622;9.230;2023-08-06T00:23:57;97117.09;;;15.69;100.00
8894;BME280;4483;48.622;9.230;2023-08-06T00:26:23;97118.50;;;15.62;100.00
8894;BME280;4483;48.622;9.230;2023-08-06T00:28:50;97113.38;;;15.60;100.00
8894;BME280;4483;48.622;9.230;2023-08-06T00:31:17;97109.47;;;15.55;100.00
8894;BME280;4483;48.622;9.230;2023-08-06T00:33:43;97126.22;;;15.51;100.00
8894;BME280;4483;48.622;9.230;2023-08-06T00:36:11;97123.94;;;15.46;100.00
8894;BME280;4483;48.622;9.230;2023-08-06T00:38:38;97125.09;;;15.42;100.00
8894;BME280;4483;48.622;9.230;2023-08-06T00:41:05;97127.78;;;15.41;100.00
8894;BME280;4483;48.622;9.230;2023-08-06T00:43:32;97129.25;;;15.32;100.00
8894;BME280;4483;48.622;9.230;2023-08-06T00:45:58;97118.38;;;15.27;100.00
8894;BME280;4483;48.622;9.230;2023-08-06T00:48:26;97113.38;;;15.24;100.00
8894;BME280;4483;48.622;9.230;2023-08-06T00:50:53;97112.88;;;15.19;100.00
8894;BME280;4483;48.622;9.230;2023-08-06T00:53:21;97108.94;;;15.13;100.00
8894;BME280;4483;48.622;9.230;2023-08-06T00:55:48;97106.78;;;15.07;100.00
8894;BME280;4483;48.622;9.230;2023-08-06T00:58:16;97116.25;;;15.08;100.00
8894;BME280;4483;48.622;9.230;2023-08-06T01:00:42;97115.50;;;15.06;100.00
8894;BME280;4483;48.622;9.230;2023-08-06T01:03:09;97106.28;;;15.02;100.00
8894;BME280;4483;48.622;9.230;2023-08-06T01:05:36;97104.81;;;14.98;100.00
8894;BME280;4483;48.622;9.230;2023-08-06T01:08:12;97106.69;;;14.96;100.00
8894;BME280;4483;48.622;9.230;2023-08-06T01:10:58;97101.00;;;14.91;100.00
8894;BME280;4483;48.622;9.230;2023-08-06T01:13:33;97098.63;;;14.88;100.00
8894;BME280;4483;48.622;9.230;2023-08-06T01:16:04;97101.41;;;14.85;100.00
8894;BME280;4483;48.622;9.230;2023-08-06T01:18:33;97105.19;;;14.81;100.00
8894;BME280;4483;48.622;9.230;2023-08-06T01:21:01;97104.66;;;14.76;100.00
8894;BME280;4483;48.622;9.230;2023-08-06T01:23:27;97101.44;;;14.73;100.00
8894;BME280;4483;48.622;9.230;2023-08-06T01:26:01;97109.94;;;14.75;100.00
8894;BME280;4483;48.622;9.230;2023-08-06T01:28:35;97105.09;;;14.70;100.00
8894;BME280;4483;48.622;9.230;2023-08-06T01:31:10;97110.47;;;14.67;100.00
8894;BME280;4483;48.622;9.230;2023-08-06T01:33:43;97094.41;;;14.62;100.00
8894;BME280;4483;48.622;9.230;2023-08-06T01:36:15;97102.19;;;14.62;100.00
8894;BME280;4483;48.622;9.230;2023-08-06T01:38:43;97094.63;;;14.59;100.00
8894;BME280;4483;48.622;9.230;2023-08-06T01:41:09;97090.47;;;14.57;100.00
8894;BME280;4483;48.622;9.230;2023-08-06T01:43:36;97095.16;;;14.52;100.00
8894;BME280;4483;48.622;9.230;2023-08-06T01:46:02;97092.00;;;14.47;100.00
8894;BME280;4483;48.622;9.230;2023-08-06T01:48:29;97094.72;;;14.45;100.00
8894;BME280;4483;48.622;9.230;2023-08-06T01:50:55;97083.72;;;14.42;100.00
8894;BME280;4483;48.622;9.230;2023-08-06T01:53:23;97094.19;;;14.40;100.00
8894;BME280;4483;48.622;9.230;2023-08-06T01:55:50;97084.13;;;14.36;100.00
8894;BME280;4483;48.622;9.230;2023-08-06T01:58:17;97088.69;;;14.32;100.00
8894;BME280;4483;48.622;9.230;2023-08-06T02:00:43;97077.72;;;14.29;100.00
8894;BME280;4483;48.622;9.230;2023-08-06T02:03:10;97070.13;;;14.26;100.00
8894;BME280;4483;48.622;9.230;2023-08-06T02:05:36;97070.41;;;14.21;100.00
8894;BME280;4483;48.622;9.230;2023-08-06T02:08:03;97070.63;;;14.18;100.00
8894;BME280;4483;48.622;9.230;2023-08-06T02:10:31;97068.44;;;14.12;100.00
8894;BME280;4483;48.622;9.230;2023-08-06T02:12:58;97064.50;;;14.06;100.00
8894;BME280;4483;48.622;9.230;2023-08-06T02:15:25;97056.22;;;14.01;100.00
8894;BME280;4483;48.622;9.230;2023-08-06T02:17:51;97055.47;;;13.99;100.00
8894;BME280;4483;48.622;9.230;2023-08-06T02:20:18;97046.34;;;13.94;100.00
8894;BME280;4483;48.622;9.230;2023-08-06T02:22:45;97047.31;;;13.93;100.00
8894;BME280;4483;48.622;9.230;2023-08-06T02:25:11;97041.41;;;13.91;100.00
8894;BME280;4483;48.622;9.230;2023-08-06T02:27:39;97037.34;;;13.87;100.00
8894;BME280;4483;48.622;9.230;2023-08-06T02:30:06;97035.59;;;13.87;100.00
8894;BME280;4483;48.622;9.230;2023-08-06T02:32:33;97033.59;;;13.78;100.00
8894;BME280;4483;48.622;9.230;2023-08-06T02:35:01;97035.47;;;13.76;100.00
8894;BME280;4483;48.622;9.230;2023-08-06T02:37:27;97035.97;;;13.69;100.00
8894;BME280;4483;48.622;9.230;2023-08-06T02:39:54;97032.75;;;13.65;100.00
8894;BME280;4483;48.622;9.230;2023-08-06T02:42:21;97029.53;;;13.62;100.00
8894;BME280;4483;48.622;9.230;2023-08-06T02:44:50;97031.41;;;13.60;100.00
8894;BME280;4483;48.622;9.230;2023-08-06T02:47:16;97026.22;;;13.60;100.00
8894;BME280;4483;48.622;9.230;2023-08-06T02:49:43;97024.53;;;13.59;100.00
8894;BME280;4483;48.622;9.230;2023-08-06T02:52:09;97010.69;;;13.60;100.00
8894;BME280;4483;48.622;9.230;2023-08-06T02:54:36;97009.13;;;13.57;100.00
8894;BME280;4483;48.622;9.230;2023-08-06T02:57:03;97012.66;;;13.56;100.00
8894;BME280;4483;48.622;9.230;2023-08-06T02:59:30;97003.22;;;13.55;100.00
8894;BME280;4483;48.622;9.230;2023-08-06T03:01:58;96997.97;;;13.57;100.00
8894;BME280;4483;48.622;9.230;2023-08-06T03:04:25;96996.06;;;13.59;100.00
8894;BME280;4483;48.622;9.230;2023-08-06T03:06:52;96991.63;;;13.61;100.00
8894;BME280;4483;48.622;9.230;2023-08-06T03:09:18;96992.47;;;13.61;100.00
8894;BME280;4483;48.622;9.230;2023-08-06T03:11:45;97003.66;;;13.62;100.00
8894;BME280;4483;48.622;9.230;2023-08-06T03:14:11;96995.91;;;13.62;100.00
8894;BME280;4483;48.622;9.230;2023-08-06T03:16:38;96994.94;;;13.63;100.00
8894;BME280;4483;48.622;9.230;2023-08-06T03:19:06;96989.78;;;13.63;100.00
8894;BME280;4483;48.622;9.230;2023-08-06T03:21:32;96985.44;;;13.63;100.00
8894;BME280;4483;48.622;9.230;2023-08-06T03:23:59;96988.75;;;13.65;100.00
8894;BME280;4483;48.622;9.230;2023-08-06T03:26:26;96996.63;;;13.64;100.00
8894;BME280;4483;48.622;9.230;2023-08-06T03:28:52;96991.63;;;13.61;100.00
8894;BME280;4483;48.622;9.230;2023-08-06T03:31:19;96994.31;;;13.59;100.00
8894;BME280;4483;48.622;9.230;2023-08-06T03:33:45;96995.06;;;13.61;100.00
8894;BME280;4483;48.622;9.230;2023-08-06T03:36:13;96991.56;;;13.62;100.00
8894;BME280;4483;48.622;9.230;2023-08-06T03:38:40;96992.25;;;13.64;100.00
8894;BME280;4483;48.622;9.230;2023-08-06T03:41:07;96992.97;;;13.66;100.00
8894;BME280;4483;48.622;9.230;2023-08-06T03:43:33;96984.50;;;13.64;100.00
8894;BME280;4483;48.622;9.230;2023-08-06T03:46:00;96992.47;;;13.61;100.00
8894;BME280;4483;48.622;9.230;2023-08-06T03:48:26;96990.91;;;13.59;100.00
8894;BME280;4483;48.622;9.230;2023-08-06T03:50:53;96995.16;;;13.60;100.00
8894;BME280;4483;48.622;9.230;2023-08-06T03:53:21;96995.91;;;13.62;100.00
8894;BME280;4483;48.622;9.230;2023-08-06T03:55:48;96990.81;;;13.60;100.00
8894;BME280;4483;48.622;9.230;2023-08-06T03:58:14;96984.81;;;13.60;100.00
8894;BME280;4483;48.622;9.230;2023-08-06T04:00:41;96987.41;;;13.60;100.00
8894;BME280;4483;48.622;9.230;2023-08-06T04:03:07;96987.41;;;13.60;100.00
8894;BME280;4483;48.622;9.230;2023-08-06T04:05:34;96980.47;;;13.60;100.00
8894;BME280;4483;48.622;9.230;2023-08-06T04:08:01;96973.63;;;13.59;100.00
8894;BME280;4483;48.622;9.230;2023-08-06T04:10:28;96968.34;;;13.61;100.00
8894;BME280;4483;48.622;9.230;2023-08-06T04:12:55;96969.50;;;13.69;100.00
8894;BME280;4483;48.622;9.230;2023-08-06T04:15:22;96974.25;;;13.75;100.00
8894;BME280;4483;48.622;9.230;2023-08-06T04:17:48;96984.00;;;13.84;100.00
8894;BME280;4483;48.622;9.230;2023-08-06T04:20:15;96987.13;;;13.89;100.00
8894;BME280;4483;48.622;9.230;2023-08-06T04:22:42;96978.22;;;13.93;100.00
8894;BME280;4483;48.622;9.230;2023-08-06T04:25:09;96981.22;;;14.00;100.00
8894;BME280;4483;48.622;9.230;2023-08-06T04:27:37;96979.97;;;14.05;100.00
8894;BME280;4483;48.622;9.230;2023-08-06T04:30:07;96980.47;;;14.10;100.00
8894;BME280;4483;48.622;9.230;2023-08-06T04:32:34;96981.09;;;14.14;100.00
8894;BME280;4483;48.622;9.230;2023-08-06T04:35:00;96984.22;;;14.19;100.00
8894;BME280;4483;48.622;9.230;2023-08-06T04:37:27;96988.97;;;14.25;100.00
8894;BME280;4483;48.622;9.230;2023-08-06T04:39:54;96996.25;;;14.33;100.00
8894;BME280;4483;48.622;9.230;2023-08-06T04:42:20;96995.41;;;14.32;100.00
8894;BME280;4483;48.622;9.230;2023-08-06T04:44:49;96992.53;;;14.37;100.00
8894;BME280;4483;48.622;9.230;2023-08-06T04:47:16;96999.69;;;14.33;100.00
8894;BME280;4483;48.622;9.230;2023-08-06T04:49:43;97002.28;;;14.33;100.00
8894;BME280;4483;48.622;9.230;2023-08-06T04:52:09;97005.47;;;14.37;100.00
8894;BME280;4483;48.622;9.230;2023-08-06T04:54:36;97003.72;;;14.37;100.00
8894;BME280;4483;48.622;9.230;2023-08-06T04:57:03;97001.22;;;14.36;100.00
8894;BME280;4483;48.622;9.230;2023-08-06T04:59:29;97000.59;;;14.32;100.00
8894;BME280;4483;48.622;9.230;2023-08-06T05:01:57;96998.84;;;14.33;100.00
8894;BME280;4483;48.622;9.230;2023-08-06T05:04:24;97000.59;;;14.32;100.00
8894;BME280;4483;48.622;9.230;2023-08-06T05:06:51;96998.41;;;14.26;100.00
8894;BME280;4483;48.622;9.230;2023-08-06T05:09:17;97005.16;;;14.29;100.00
8894;BME280;4483;48.622;9.230;2023-08-06T05:11:46;97010.34;;;14.29;100.00
8894;BME280;4483;48.622;9.230;2023-08-06T05:14:12;97004.34;;;14.28;100.00
8894;BME280;4483;48.622;9.230;2023-08-06T05:16:39;97004.97;;;14.32;100.00
8894;BME280;4483;48.622;9.230;2023-08-06T05:19:07;96999.53;;;14.47;100.00
8894;BME280;4483;48.622;9.230;2023-08-06T05:21:33;97001.88;;;14.75;100.00
8894;BME280;4483;48.622;9.230;2023-08-06T05:24:00;97002.75;;;14.99;100.00
8894;BME280;4483;48.622;9.230;2023-08-06T05:26:27;97005.94;;;15.27;100.00
8894;BME280;4483;48.622;9.230;2023-08-06T05:28:53;96998.19;;;15.50;100.00
8894;BME280;4483;48.622;9.230;2023-08-06T05:31:20;96999.28;;;15.70;100.00
8894;BME280;4483;48.622;9.230;2023-08-06T05:33:47;96997.59;;;15.92;100.00
8894;BME280;4483;48.622;9.230;2023-08-06T05:36:14;97007.44;;;16.11;100.00
8894;BME280;4483;48.622;9.230;2023-08-06T05:38:43;97006.75;;;16.31;100.00
8894;BME280;4483;48.622;9.230;2023-08-06T05:41:09;97011.97;;;16.53;100.00
8894;BME280;4483;48.622;9.230;2023-08-06T05:43:36;97008.16;;;16.79;100.00
8894;BME280;4483;48.622;9.230;2023-08-06T05:46:02;97009.91;;;17.01;100.00
8894;BME280;4483;48.622;9.230;2023-08-06T05:48:29;97007.69;;;16.85;100.00
8894;BME280;4483;48.622;9.230;2023-08-06T05:50:57;97011.72;;;16.67;100.00
8894;BME280;4483;48.622;9.230;2023-08-06T05:53:25;97013.75;;;16.53;100.00
8894;BME280;4483;48.622;9.230;2023-08-06T05:55:51;97015.84;;;16.37;100.00
8894;BME280;4483;48.622;9.230;2023-08-06T05:58:18;97022.53;;;16.28;100.00
8894;BME280;4483;48.622;9.230;2023-08-06T06:00:45;97026.56;;;16.21;100.00
8894;BME280;4483;48.622;9.230;2023-08-06T06:03:12;97023.13;;;16.09;100.00
8894;BME280;4483;48.622;9.230;2023-08-06T06:05:38;97036.47;;;16.05;100.00
8894;BME280;4483;48.622;9.230;2023-08-06T06:08:05;97040.78;;;15.93;100.00
8894;BME280;4483;48.622;9.230;2023-08-06T06:10:33;97035.47;;;15.84;100.00
8894;BME280;4483;48.622;9.230;2023-08-06T06:13:00;97037.00;;;15.86;100.00
8894;BME280;4483;48.622;9.230;2023-08-06T06:15:26;97042.63;;;15.80;100.00
8894;BME280;4483;48.622;9.230;2023-08-06T06:17:53;97034.50;;;15.74;100.00
8894;BME280;4483;48.622;9.230;2023-08-06T06:20:19;97030.81;;;15.65;100.00
8894;BME280;4483;48.622;9.230;2023-08-06T06:22:46;97045.78;;;15.62;100.00
8894;BME280;4483;48.622;9.230;2023-08-06T06:25:13;97046.00;;;15.59;100.00
8894;BME280;4483;48.622;9.230;2023-08-06T06:27:41;97050.97;;;15.62;100.00
8894;BME280;4483;48.622;9.230;2023-08-06T06:30:08;97057.34;;;15.58;100.00
8894;BME280;4483;48.622;9.230;2023-08-06T06:32:37;97058.78;;;15.62;100.00
8894;BME280;4483;48.622;9.230;2023-08-06T06:35:05;97060.19;;;15.66;100.00
8894;BME280;4483;48.622;9.230;2023-08-06T06:37:32;97063.72;;;15.65;100.00
8894;BME280;4483;48.622;9.230;2023-08-06T06:39:59;97061.84;;;15.67;100.00
8894;BME280;4483;48.622;9.230;2023-08-06T06:42:25;97058.53;;;15.65;100.00
8894;BME280;4483;48.622;9.230;2023-08-06T06:44:53;97064.69;;;15.75;100.00
8894;BME280;4483;48.622;9.230;2023-08-06T06:47:20;97067.41;;;15.73;100.00
8894;BME280;4483;48.622;9.230;2023-08-06T06:49:46;97071.81;;;15.73;100.00
8894;BME280;4483;48.622;9.230;2023-08-06T06:52:13;97066.31;;;15.65;100.00
8894;BME280;4483;48.622;9.230;2023-08-06T06:54:40;97074.34;;;15.62;100.00
8894;BME280;4483;48.622;9.230;2023-08-06T06:57:07;97074.13;;;15.65;100.00
8894;BME280;4483;48.622;9.230;2023-08-06T06:59:33;97070.78;;;15.63;100.00
8894;BME280;4483;48.622;9.230;2023-08-06T07:02:01;97067.47;;;15.61;100.00
8894;BME280;4483;48.622;9.230;2023-08-06T07:04:28;97063.25;;;15.60;100.00
8894;BME280;4483;48.622;9.230;2023-08-06T07:06:54;97073.69;;;15.71;100.00
8894;BME280;4483;48.622;9.230;2023-08-06T07:09:21;97071.06;;;15.71;100.00
8894;BME280;4483;48.622;9.230;2023-08-06T07:11:48;97075.00;;;15.76;100.00
8894;BME280;4483;48.622;9.230;2023-08-06T07:14:14;97076.88;;;15.74;100.00
8894;BME280;4483;48.622;9.230;2023-08-06T07:16:41;97072.00;;;15.70;100.00
8894;BME280;4483;48.622;9.230;2023-08-06T07:19:09;97070.38;;;15.69;100.00
8894;BME280;4483;48.622;9.230;2023-08-06T07:21:35;97072.50;;;15.75;100.00
8894;BME280;4483;48.622;9.230;2023-08-06T07:24:02;97072.16;;;15.79;100.00
8894;BME280;4483;48.622;9.230;2023-08-06T07:26:29;97075.25;;;15.84;100.00
8894;BME280;4483;48.622;9.230;2023-08-06T07:28:56;97070.88;;;15.85;100.00
8894;BME280;4483;48.622;9.230;2023-08-06T07:31:22;97083.75;;;15.86;100.00
8894;BME280;4483;48.622;9.230;2023-08-06T07:33:49;97077.13;;;15.82;100.00
8894;BME280;4483;48.622;9.230;2023-08-06T07:36:18;97076.09;;;15.85;100.00
8894;BME280;4483;48.622;9.230;2023-08-06T07:38:50;97067.81;;;15.80;100.00
8894;BME280;4483;48.622;9.230;2023-08-06T07:41:22;97080.78;;;15.80;100.00
8894;BME280;4483;48.622;9.230;2023-08-06T07:43:49;97069.69;;;15.78;100.00
8894;BME280;4483;48.622;9.230;2023-08-06T07:46:15;97075.00;;;15.76;100.00
8894;BME280;4483;48.622;9.230;2023-08-06T07:48:42;97062.25;;;15.84;100.00
8894;BME280;4483;48.622;9.230;2023-08-06T07:51:09;97074.13;;;15.99;100.00
8894;BME280;4483;48.622;9.230;2023-08-06T07:53:37;97075.13;;;16.09;100.00
8894;BME280;4483;48.622;9.230;2023-08-06T07:56:03;97072.75;;;16.18;100.00
8894;BME280;4483;48.622;9.230;2023-08-06T07:58:30;97071.13;;;16.28;100.00
8894;BME280;4483;48.622;9.230;2023-08-06T08:00:57;97077.63;;;16.33;100.00
8894;BME280;4483;48.622;9.230;2023-08-06T08:03:23;97073.63;;;16.40;100.00
8894;BME280;4483;48.622;9.230;2023-08-06T08:05:54;97070.78;;;16.43;100.00
8894;BME280;4483;48.622;9.230;2023-08-06T08:08:22;97072.66;;;16.41;100.00
8894;BME280;4483;48.622;9.230;2023-08-06T08:10:50;97060.50;;;16.42;100.00
8894;BME280;4483;48.622;9.230;2023-08-06T08:13:17;97066.66;;;16.41;100.00
8894;BME280;4483;48.622;9.230;2023-08-06T08:15:44;97075.19;;;16.54;100.00
8894;BME280;4483;48.622;9.230;2023-08-06T08:18:10;97064.78;;;16.65;100.00
8894;BME280;4483;48.622;9.230;2023-08-06T08:20:37;97070.59;;;16.79;99.80
8894;BME280;4483;48.622;9.230;2023-08-06T08:23:04;97073.69;;;16.95;100.00
8894;BME280;4483;48.622;9.230;2023-08-06T08:25:30;97072.13;;;17.04;99.40
8894;BME280;4483;48.622;9.230;2023-08-06T08:28:00;97068.47;;;17.06;98.84
8894;BME280;4483;48.622;9.230;2023-08-06T08:30:27;97070.09;;;17.07;99.14
8894;BME280;4483;48.622;9.230;2023-08-06T08:32:53;97068.56;;;17.05;99.18
8894;BME280;4483;48.622;9.230;2023-08-06T08:35:20;97084.06;;;17.06;98.90
8894;BME280;4483;48.622;9.230;2023-08-06T08:37:47;97078.75;;;16.97;98.60
8894;BME280;4483;48.622;9.230;2023-08-06T08:40:14;97070.50;;;16.92;100.00
8894;BME280;4483;48.622;9.230;2023-08-06T08:42:41;97075.44;;;16.95;99.53
8894;BME280;4483;48.622;9.230;2023-08-06T08:45:12;97084.81;;;16.97;98.93
8894;BME280;4483;48.622;9.230;2023-08-06T08:47:40;97083.38;;;16.93;98.05
8894;BME280;4483;48.622;9.230;2023-08-06T08:50:08;97075.31;;;16.96;99.11
8894;BME280;4483;48.622;9.230;2023-08-06T08:52:35;97072.97;;;17.04;99.51
8894;BME280;4483;48.622;9.230;2023-08-06T08:55:03;97079.91;;;17.15;99.87
8894;BME280;4483;48.622;9.230;2023-08-06T08:57:30;97090.75;;;17.31;99.67
8894;BME280;4483;48.622;9.230;2023-08-06T08:59:57;97082.59;;;17.36;98.56
8894;BME280;4483;48.622;9.230;2023-08-06T09:02:25;97087.59;;;17.28;98.63
8894;BME280;4483;48.622;9.230;2023-08-06T09:04:56;97093.16;;;17.23;98.31
8894;BME280;4483;48.622;9.230;2023-08-06T09:07:26;97096.38;;;17.16;98.44
8894;BME280;4483;48.622;9.230;2023-08-06T09:09:54;97097.56;;;17.12;99.31
8894;BME280;4483;48.622;9.230;2023-08-06T09:12:22;97097.19;;;17.16;99.00
8894;BME280;4483;48.622;9.230;2023-08-06T09:14:49;97106.28;;;17.22;100.00
8894;BME280;4483;48.622;9.230;2023-08-06T09:17:16;97102.03;;;17.32;100.00
8894;BME280;4483;48.622;9.230;2023-08-06T09:19:46;97104.16;;;17.38;97.70
8894;BME280;4483;48.622;9.230;2023-08-06T09:22:15;97098.44;;;17.44;97.97
8894;BME280;4483;48.622;9.230;2023-08-06T09:24:42;97094.91;;;17.56;98.51
8894;BME280;4483;48.622;9.230;2023-08-06T09:27:10;97099.00;;;17.58;96.64
8894;BME280;4483;48.622;9.230;2023-08-06T09:29:40;97094.50;;;17.60;96.48
8894;BME280;4483;48.622;9.230;2023-08-06T09:32:07;97105.38;;;17.65;95.99
8894;BME280;4483;48.622;9.230;2023-08-06T09:34:33;97117.72;;;17.63;95.32
8894;BME280;4483;48.622;9.230;2023-08-06T09:37:03;97098.25;;;17.78;95.03
8894;BME280;4483;48.622;9.230;2023-08-06T09:39:30;97094.06;;;18.07;94.88
8894;BME280;4483;48.622;9.230;2023-08-06T09:41:59;97087.97;;;18.39;92.88
8894;BME280;4483;48.622;9.230;2023-08-06T09:44:27;97098.63;;;18.67;92.15
8894;BME280;4483;48.622;9.230;2023-08-06T09:46:55;97092.50;;;18.78;92.24
8894;BME280;4483;48.622;9.230;2023-08-06T09:49:25;97089.31;;;18.74;92.42
8894;BME280;4483;48.622;9.230;2023-08-06T09:51:52;97109.63;;;18.50;90.74
8894;BME280;4483;48.622;9.230;2023-08-06T09:54:22;97102.41;;;18.22;90.90
8894;BME280;4483;48.622;9.230;2023-08-06T09:56:49;97102.16;;;18.04;92.38
8894;BME280;4483;48.622;9.230;2023-08-06T09:59:17;97107.63;;;18.01;94.94
8894;BME280;4483;48.622;9.230;2023-08-06T10:01:45;97104.69;;;17.95;94.97
8894;BME280;4483;48.622;9.230;2023-08-06T10:04:14;97104.84;;;17.82;95.35
8894;BME280;4483;48.622;9.230;2023-08-06T10:06:42;97108.81;;;17.66;96.20
8894;BME280;4483;48.622;9.230;2023-08-06T10:09:09;97114.06;;;17.44;96.22
8894;BME280;4483;48.622;9.230;2023-08-06T10:11:37;97120.38;;;17.19;98.44
8894;BME280;4483;48.622;9.230;2023-08-06T10:14:08;97117.91;;;16.95;99.67
8894;BME280;4483;48.622;9.230;2023-08-06T10:16:36;97125.00;;;16.71;100.00
8894;BME280;4483;48.622;9.230;2023-08-06T10:19:05;97122.13;;;16.63;100.00
8894;BME280;4483;48.622;9.230;2023-08-06T10:21:33;97126.41;;;16.53;100.00
8894;BME280;4483;48.622;9.230;2023-08-06T10:24:00;97122.06;;;16.41;100.00
8894;BME280;4483;48.622;9.230;2023-08-06T10:26:29;97123.03;;;16.40;100.00
8894;BME280;4483;48.622;9.230;2023-08-06T10:28:57;97124.00;;;16.50;100.00
8894;BME280;4483;48.622;9.230;2023-08-06T10:31:55;97126.41;;;16.53;100.00
8894;BME280;4483;48.622;9.230;2023-08-06T10:34:24;97126.63;;;16.61;100.00
8894;BME280;4483;48.622;9.230;2023-08-06T10:36:54;97125.00;;;16.71;100.00
8894;BME280;4483;48.622;9.230;2023-08-06T10:39:20;97136.72;;;16.77;100.00
8894;BME280;4483;48.622;9.230;2023-08-06T10:41:47;97139.19;;;16.78;100.00
8894;BME280;4483;48.622;9.230;2023-08-06T10:44:15;97139.44;;;16.86;100.00
8894;BME280;4483;48.622;9.230;2023-08-06T10:46:42;97134.25;;;16.97;100.00
8894;BME280;4483;48.622;9.230;2023-08-06T10:49:09;97146.88;;;17.02;100.00
8894;BME280;4483;48.622;9.230;2023-08-06T10:51:37;97147.00;;;17.00;100.00
8894;BME280;4483;48.622;9.230;2023-08-06T10:54:04;97145.81;;;16.93;100.00
8894;BME280;4483;48.622;9.230;2023-08-06T10:56:39;97141.41;;;16.94;100.00
8894;BME280;4483;48.622;9.230;2023-08-06T10:59:06;97159.28;;;16.87;100.00
8894;BME280;4483;48.622;9.230;2023-08-06T11:01:37;97136.00;;;16.86;100.00
8894;BME280;4483;48.622;9.230;2023-08-06T11:04:04;97150.53;;;16.88;100.00
8894;BME280;4483;48.622;9.230;2023-08-06T11:06:31;97150.78;;;16.85;100.00
8894;BME280;4483;48.622;9.230;2023-08-06T11:08:58;97146.53;;;16.84;100.00
8894;BME280;4483;48.622;9.230;2023-08-06T11:11:25;97142.72;;;16.88;100.00
8894;BME280;4483;48.622;9.230;2023-08-06T11:13:52;97144.16;;;16.92;100.00
8894;BME280;4483;48.622;9.230;2023-08-06T11:16:21;97148.91;;;16.98;100.00
8894;BME280;4483;48.622;9.230;2023-08-06T11:18:51;97152.22;;;17.00;100.00
8894;BME280;4483;48.622;9.230;2023-08-06T11:21:19;97148.66;;;17.01;100.00
8894;BME280;4483;48.622;9.230;2023-08-06T11:23:46;97159.56;;;17.06;100.00
8894;BME280;4483;48.622;9.230;2023-08-06T11:26:18;97172.44;;;17.08;100.00
8894;BME280;4483;48.622;9.230;2023-08-06T11:28:45;97167.81;;;17.12;100.00
8894;BME280;4483;48.622;9.230;2023-08-06T11:31:18;97163.22;;;17.15;100.00
8894;BME280;4483;48.622;9.230;2023-08-06T11:33:45;97173.25;;;17.20;100.00
8894;BME280;4483;48.622;9.230;2023-08-06T11:36:13;97172.06;;;17.24;100.00
8894;BME280;4483;48.622;9.230;2023-08-06T11:38:40;97180.13;;;17.21;100.00
8894;BME280;4483;48.622;9.230;2023-08-06T11:41:07;97186.88;;;17.12;100.00
8894;BME280;4483;48.622;9.230;2023-08-06T11:43:33;97188.88;;;17.08;100.00
8894;BME280;4483;48.622;9.230;2023-08-06T11:46:00;97183.19;;;17.03;100.00
8894;BME280;4483;48.622;9.230;2023-08-06T11:48:27;97188.19;;;17.06;100.00
8894;BME280;4483;48.622;9.230;2023-08-06T11:50:54;97184.16;;;17.14;100.00
8894;BME280;4483;48.622;9.230;2023-08-06T11:53:27;97192.09;;;17.23;100.00
8894;BME280;4483;48.622;9.230;2023-08-06T11:55:54;97190.53;;;17.21;100.00
8894;BME280;4483;48.622;9.230;2023-08-06T11:58:20;97186.38;;;17.18;100.00
8894;BME280;4483;48.622;9.230;2023-08-06T12:00:47;97192.78;;;17.25;100.00
8894;BME280;4483;48.622;9.230;2023-08-06T12:03:15;97191.84;;;17.37;100.00
8894;BME280;4483;48.622;9.230;2023-08-06T12:05:44;97198.00;;;17.58;100.00
8894;BME280;4483;48.622;9.230;2023-08-06T12:08:12;97206.03;;;17.77;100.00
8894;BME280;4483;48.622;9.230;2023-08-06T12:10:40;97202.56;;;17.88;100.00
8894;BME280;4483;48.622;9.230;2023-08-06T12:13:06;97201.25;;;17.93;100.00
8894;BME280;4483;48.622;9.230;2023-08-06T12:15:33;97210.59;;;17.96;100.00
8894;BME280;4483;48.622;9.230;2023-08-06T12:18:00;97214.41;;;17.92;98.95
8894;BME280;4483;48.622;9.230;2023-08-06T12:20:26;97217.59;;;17.84;98.01
8894;BME280;4483;48.622;9.230;2023-08-06T12:22:53;97219.97;;;17.76;98.11
8894;BME280;4483;48.622;9.230;2023-08-06T12:25:20;97226.63;;;17.58;97.66
8894;BME280;4483;48.622;9.230;2023-08-06T12:27:48;97230.81;;;17.50;98.79
8894;BME280;4483;48.622;9.230;2023-08-06T12:30:15;97229.84;;;17.62;97.92
8894;BME280;4483;48.622;9.230;2023-08-06T12:32:41;97232.91;;;17.78;95.57
8894;BME280;4483;48.622;9.230;2023-08-06T12:35:08;97234.06;;;17.96;95.51
8894;BME280;4483;48.622;9.230;2023-08-06T12:37:35;97241.00;;;18.18;94.04
8894;BME280;4483;48.622;9.230;2023-08-06T12:40:04;97244.13;;;18.32;88.63
8894;BME280;4483;48.622;9.230;2023-08-06T12:42:31;97241.19;;;18.37;88.32
8894;BME280;4483;48.622;9.230;2023-08-06T12:44:59;97244.13;;;18.32;85.75
8894;BME280;4483;48.622;9.230;2023-08-06T12:47:25;97241.97;;;18.37;86.23
8894;BME280;4483;48.622;9.230;2023-08-06T12:49:52;97251.47;;;18.38;85.99
8894;BME280;4483;48.622;9.230;2023-08-06T12:52:19;97253.38;;;18.36;82.82
8894;BME280;4483;48.622;9.230;2023-08-06T12:54:45;97261.69;;;18.30;83.09
8894;BME280;4483;48.622;9.230;2023-08-06T12:57:12;97252.72;;;18.23;82.61
8894;BME280;4483;48.622;9.230;2023-08-06T12:59:39;97259.34;;;18.27;82.48
8894;BME280;4483;48.622;9.230;2023-08-06T13:02:07;97254.94;;;18.28;81.69
8894;BME280;4483;48.622;9.230;2023-08-06T13:04:34;97262.06;;;18.26;82.65
8894;BME280;4483;48.622;9.230;2023-08-06T13:07:00;97280.94;;;18.18;82.60
8894;BME280;4483;48.622;9.230;2023-08-06T13:09:27;97274.44;;;18.13;82.94
8894;BME280;4483;48.622;9.230;2023-08-06T13:11:53;97270.59;;;18.17;83.03
8894;BME280;4483;48.622;9.230;2023-08-06T13:14:20;97274.28;;;18.25;83.61